Terminal Aerodrome Forecast
Issued by NWS

Home | Current Version | Previous Version | Text Only | Print | Product List | Glossary On
Versions: 1 2 3 4 5 6 7 8 9 10 11 12 13 14
000
FTUS42 KMLB 241500 AAA
TAFLEE
TAF AMD
KLEE 241515Z 2415/2512 VRB03KT P6SM BKN027
     FM241800 24005KT P6SM SCT025 SCT250
     FM242000 23007KT P6SM VCTS SCT050CB BKN250
     FM250000 23004KT P6SM FEW050 SCT250=

USA.gov is the U.S. government's official web portal to all federal, state and local government web resources and services.